LAS weather

McCarran International Airport
Las Vegas, Nevada, United States

Public forecast

Using degrees Fahrenheit for public forecast. Weather courtesy of forecast.io.

METAR (pilot weather report)

Retrieved 2017/01/20 04:56 UTC (45 minutes ago):

KLAS 200456Z 29003KT 10SM SCT075 SCT150 10/03 A2975

TAF (pilot weather forecast)

Forecast is more than 12 hours old.

Retrieved 2017/01/19 00:42 UTC (1 day ago):

TAF KLAS 192338Z 2000/2024 25012G20KT P6SM VCSH SCT050 FM200300 27010KT P6SM FEW060 FM200900 20008KT P6SM SCT060 BKN150 FM201800 18012G22KT P6SM -SHRA BKN050 OVC090